Data for 07/17/2017

Time Sea-Level Adjusted Pressure Absolute Pressure Temperature Relative Humidity Dew Point   
(mb) (inHg) (mb) (inHg) (C) (F) (%) (C) (F)
00:05 1019 30.09 848 25.04 15.9 60.6 54 6.7 44.1
00:10 1019 30.09 848 25.04 16.1 61 54 7 44.5
00:15 1019 30.09 848 25.04 16.2 61.1 52 6.5 43.7
00:20 1019 30.09 848 25.04 16.5 61.6 50 6.2 43.2
00:25 1019 30.09 849 25.07 16.7 62 48 5.7 42.3
00:30 1019 30.09 849 25.07 16.9 62.5 47 5.7 42.2
00:35 1019 30.09 849 25.07 17 62.5 45 5 40.9
00:40 1019 30.09 849 25.07 17.2 63 44 5 41.1
00:45 1019 30.09 849 25.07 17.1 62.9 45 5.2 41.4
00:50 1019 30.09 849 25.07 16.8 62.3 45 5 41
00:55 1019 30.09 849 25.07 16.6 61.9 47 5.2 41.4
01:00 1019 30.09 849 25.07 16.2 61.1 51 6 42.8
01:05 1020 30.12 849 25.07 15.5 60 53 6.2 43.2
01:10 1020 30.12 849 25.07 15.4 59.6 51 5.4 41.8
01:15 1020 30.12 849 25.07 15.6 60 50 5.3 41.5
01:20 1020 30.12 849 25.07 15.6 60.1 50 5.2 41.4
01:25 1020 30.12 849 25.07 15.7 60.2 50 5.5 41.9
01:30 1020 30.12 849 25.07 15.4 59.7 52 5.7 42.2
01:35 1020 30.12 849 25.07 15.1 59.1 52 5.4 41.7
01:40 1020 30.12 849 25.07 15 59 52 5.2 41.3
01:45 1020 30.12 849 25.07 15.2 59.3 52 5.4 41.7
01:50 1020 30.12 849 25.07 15.1 59.2 52 5.4 41.8
01:55 1020 30.12 849 25.07 15 59 51 5 41
02:00 1020 30.12 849 25.07 15 58.9 50 4.8 40.7
02:05 1020 30.12 849 25.07 14.9 58.9 50 4.7 40.5
02:10 1020 30.12 849 25.07 14.8 58.7 50 4.5 40.2
02:15 1020 30.12 849 25.07 15 58.9 48 4.2 39.5
02:20 1020 30.12 849 25.07 15.2 59.4 47 4 39.1
02:25 1020 30.12 849 25.07 15.3 59.5 44 3.3 38
02:30 1020 30.12 849 25.07 15.2 59.3 45 3.5 38.3
02:35 1020 30.12 849 25.07 15 58.9 45 3.3 37.9
02:40 1020 30.12 849 25.07 14.8 58.6 48 3.9 39
02:45 1020 30.12 849 25.07 14.5 58.1 47 3.5 38.3
02:50 1020 30.12 849 25.07 14.5 58.1 47 3.3 37.9
02:55 1020 30.12 849 25.07 14.7 58.4 45 3 37.4
03:00 1020 30.12 849 25.07 14.7 58.4 46 3.3 38
03:05 1020 30.12 849 25.07 14.3 57.8 48 3.5 38.3
03:10 1020 30.12 849 25.07 14 57.1 49 3.5 38.2
03:15 1020 30.12 849 25.07 13.7 56.7 50 3.6 38.5
03:20 1020 30.12 849 25.07 13.6 56.5 50 3.3 38
03:25 1020 30.12 849 25.07 13.8 56.8 48 3.1 37.5
03:30 1020 30.12 849 25.07 14 57.1 48 3.1 37.6
03:35 1020 30.12 849 25.07 14.1 57.4 47 3.1 37.6
03:40 1020 30.12 849 25.07 13.9 57.1 49 3.5 38.2
03:45 1020 30.12 849 25.07 13.6 56.5 51 3.7 38.7
03:50 1020 30.12 849 25.07 13.3 55.9 53 3.8 38.9
03:55 1020 30.12 849 25.07 13.1 55.5 52 3.5 38.3
04:00 1020 30.12 849 25.07 13.2 55.7 52 3.6 38.4
04:05 1020 30.12 849 25.07 13.4 56 51 3.5 38.3
04:10 1020 30.12 849 25.07 13.5 56.3 50 3.3 37.9
04:15 1020 30.12 849 25.07 13.6 56.4 49 3 37.4
04:20 1020 30.12 849 25.07 13.7 56.6 49 3.2 37.7
04:25 1020 30.12 849 25.07 13.6 56.4 50 3.3 38
04:30 1020 30.12 849 25.07 13.3 55.9 51 3.4 38.2
04:35 1020 30.12 849 25.07 13 55.4 53 3.6 38.5
04:40 1020 30.12 849 25.07 12.8 55.1 51 3.1 37.7
04:45 1020 30.12 849 25.07 12.8 55 50 2.8 37.1
04:50 1020 30.12 849 25.07 12.9 55.3 50 2.8 37.1
04:55 1020 30.12 849 25.07 12.8 55.1 48 2.2 35.9
05:00 1020 30.12 849 25.07 13 55.4 49 2.6 36.7
05:05 1020 30.12 849 25.07 12.9 55.3 48 2.3 36.1
05:10 1020 30.12 849 25.07 13 55.4 45 1.5 34.7
05:15 1020 30.12 850 25.1 13.4 56.1 45 1.8 35.2
05:20 1020 30.12 850 25.1 13.6 56.5 45 1.9 35.5
05:25 1020 30.12 850 25.1 13.5 56.3 44 1.7 35.1
05:30 1020 30.12 850 25.1 13.5 56.3 46 2.1 35.9
05:35 1021 30.15 850 25.1 13.1 55.7 49 2.8 37
05:40 1020 30.12 850 25.1 12.9 55.2 49 2.4 36.4
05:45 1020 30.12 850 25.1 12.9 55.2 49 2.5 36.5
05:50 1020 30.12 850 25.1 12.9 55.2 49 2.5 36.5
05:55 1020 30.12 850 25.1 12.8 55.1 49 2.4 36.3
06:00 1021 30.15 850 25.1 13 55.4 48 2.4 36.2
06:05 1021 30.15 850 25.1 13.1 55.6 48 2.4 36.3
06:10 1020 30.12 850 25.1 13.1 55.7 48 2.3 36.2
06:15 1020 30.12 850 25.1 13.4 56.2 46 2.2 35.9
06:20 1020 30.12 850 25.1 13.9 57 45 2.3 36.2
06:25 1021 30.15 850 25.1 14.2 57.5 44 2.1 35.8
06:30 1021 30.15 850 25.1 14.3 57.8 44 2.3 36.1
06:35 1021 30.15 850 25.1 14.4 57.9 44 2.2 36
06:40 1021 30.15 850 25.1 14.8 58.6 44 2.6 36.7
06:45 1021 30.15 850 25.1 15.1 59.1 44 3 37.4
06:50 1021 30.15 850 25.1 15.5 59.9 41 2.6 36.6
06:55 1021 30.15 850 25.1 15.8 60.4 43 3.2 37.8
07:00 1021 30.15 850 25.1 16 60.8 40 2.5 36.6
07:05 1021 30.15 850 25.1 16.3 61.4 39 2.5 36.6
07:10 1021 30.15 850 25.1 16.1 60.9 41 3 37.4
07:15 1021 30.15 850 25.1 16 60.7 40 2.6 36.8
07:20 1021 30.15 850 25.1 17 62.5 40 3.5 38.4
07:25 1021 30.15 850 25.1 16.9 62.5 42 4 39.1
07:30 1021 30.15 850 25.1 17.4 63.3 39 3.4 38.1
07:35 1021 30.15 850 25.1 17.6 63.7 36 2.7 36.8
07:40 1021 30.15 850 25.1 17.2 63 37 2.5 36.5
07:45 1021 30.15 850 25.1 17.2 63 37 2.5 36.5
07:50 1021 30.15 850 25.1 17.3 63.1 40 3.6 38.5
07:55 1021 30.15 850 25.1 17.1 62.7 42 4.2 39.6
08:00 1021 30.15 850 25.1 17.1 62.8 39 3 37.5
08:05 1021 30.15 850 25.1 17.4 63.3 39 3.4 38.1
08:10 1021 30.15 850 25.1 18 64.3 36 2.9 37.1
08:15 1020 30.12 850 25.1 18.7 65.6 33 2 35.7
08:20 1020 30.12 849 25.07 18.6 65.6 33 2.2 36
08:25 1020 30.12 849 25.07 18.5 65.3 31 1.2 34.2
08:30 1021 30.15 850 25.1 18.6 65.5 29 0.2 32.3
08:35 1021 30.15 850 25.1 18.8 65.8 28 0.1 32.2
08:40 1021 30.15 850 25.1 18.8 65.8 28 0 32
08:45 1021 30.15 850 25.1 18.7 65.7 30 1.1 34
08:50 1020 30.12 850 25.1 18.4 65.1 32 1.4 34.6
08:55 1020 30.12 850 25.1 18.7 65.7 29 0.6 33.1
09:00 1020 30.12 849 25.07 19.3 66.7 30 1.3 34.4
09:05 1020 30.12 849 25.07 19.9 67.8 23 -1.6 29.2
09:10 1020 30.12 849 25.07 20.3 68.5 25 -0.5 31.1
09:15 1020 30.12 849 25.07 20.8 69.4 23 -0.9 30.3
09:20 1020 30.12 849 25.07 22.1 71.7 20 -1.8 28.8
09:25 1020 30.12 849 25.07 21.6 70.8 20 -2.3 27.8
09:30 1019 30.09 849 25.07 22 71.6 20 -1.6 29.1
09:35 1019 30.09 848 25.04 22.4 72.4 19 -1.8 28.8
09:40 1019 30.09 848 25.04 22.6 72.7 21 -0.7 30.8
09:45 1019 30.09 848 25.04 22 71.6 22 -0.6 30.8
09:50 1019 30.09 848 25.04 21.4 70.5 23 -0.4 31.2
09:55 1020 30.12 849 25.07 21.5 70.6 23 -0.2 31.7
10:00 1020 30.12 849 25.07 21 69.9 24 0.1 32.2
10:05 1020 30.12 849 25.07 21 69.7 25 0.1 32.3
10:10 1019 30.09 849 25.07 20.6 69 25 -0 32
10:15 1020 30.12 849 25.07 20 68 27 0.7 33.2
10:20 1020 30.12 849 25.07 20.2 68.3 30 2.1 35.8
10:25 1021 30.15 850 25.1 19.6 67.3 41 6 42.8
10:30 1021 30.15 850 25.1 18.4 65.1 40 4.7 40.5
10:35 1021 30.15 850 25.1 18.3 64.9 36 3.1 37.5
10:40 1021 30.15 850 25.1 18.3 64.9 36 3.1 37.6
10:45 1020 30.12 849 25.07 18.4 65 40 4.6 40.3
10:50 1020 30.12 849 25.07 18.1 64.6 40 4.4 40
10:55 1020 30.12 849 25.07 18.1 64.5 41 4.9 40.8
11:00 1019 30.09 849 25.07 18.4 65.1 38 3.9 38.9
11:05 1019 30.09 848 25.04 18.6 65.4 37 3.8 38.9
11:10 1019 30.09 848 25.04 18.5 65.3 37 3.8 38.9
11:15 1019 30.09 848 25.04 18.5 65.4 37 3.8 38.9
11:20 1019 30.09 849 25.07 18.8 65.8 36 3.5 38.3
11:25 1019 30.09 848 25.04 18.7 65.7 38 4.2 39.6
11:30 1019 30.09 848 25.04 19.3 66.8 44 6.8 44.3
11:35 1019 30.09 848 25.04 20.1 68.1 36 4.6 40.3
11:40 1019 30.09 848 25.04 20.2 68.3 33 3.4 38.2
11:45 1019 30.09 848 25.04 20.5 68.8 32 3.5 38.4
11:50 1019 30.09 848 25.04 21.2 70.1 30 3.3 37.9
11:55 1019 30.09 848 25.04 21.4 70.4 31 3.7 38.7
12:00 1019 30.09 848 25.04 22 71.5 29 3.1 37.6
12:05 1019 30.09 848 25.04 22.5 72.4 29 3.6 38.5
12:10 1019 30.09 848 25.04 22.8 73.1 28 3.3 38
12:15 1019 30.09 848 25.04 22.5 72.5 27 2.6 36.7
12:20 1019 30.09 848 25.04 22.9 73.2 25 2.1 35.7
12:25 1019 30.09 848 25.04 23 73.3 26 2.6 36.7
12:30 1019 30.09 848 25.04 23.4 74 24 2.1 35.8
12:35 1019 30.09 848 25.04 23.7 74.6 26 3.3 37.9
12:40 1019 30.09 849 25.07 23.4 74.1 25 2.2 36
12:45 1019 30.09 848 25.04 23.4 74.1 26 3.1 37.6
12:50 1019 30.09 848 25.04 23.8 74.9 27 3.7 38.7
12:55 1019 30.09 848 25.04 24.5 76.1 25 3.7 38.6
13:00 1019 30.09 848 25.04 24.1 75.5 26 3.8 38.8
13:05 1019 30.09 848 25.04 24.1 75.3 26 3.6 38.5
13:10 1019 30.09 848 25.04 24.2 75.5 26 3.8 38.9
13:15 1019 30.09 848 25.04 24.5 76.1 24 2.6 36.7
13:20 1019 30.09 848 25.04 24.4 76 24 2.7 36.9
13:25 1019 30.09 848 25.04 25.1 77.1 23 2.6 36.7
13:30 1019 30.09 848 25.04 24.7 76.4 23 2.6 36.7
13:35 1019 30.09 848 25.04 24.7 76.5 24 3.1 37.6
13:40 1019 30.09 848 25.04 25.6 78.1 23 2.9 37.3
13:45 1019 30.09 848 25.04 25.2 77.4 23 3.1 37.6
13:50 1019 30.09 848 25.04 25.5 78 21 2.1 35.8
13:55 1019 30.09 848 25.04 26 78.8 18 -0 31.9
14:00 1018 30.06 848 25.04 25.5 77.9 20 1.1 33.9
14:05 1018 30.06 848 25.04 25.5 77.8 21 1.5 34.8
14:10 1018 30.06 847 25.01 25.9 78.6 20 1.7 35.1
14:15 1018 30.06 847 25.01 26.6 79.9 18 0.4 32.7
14:20 1018 30.06 847 25.01 26.6 79.8 19 1.4 34.6
14:25 1018 30.06 847 25.01 26.5 79.7 18 0.3 32.6
14:30 1018 30.06 847 25.01 26.7 80.1 16 -1 30.2
14:35 1018 30.06 847 25.01 27.5 81.4 16 -0.6 30.9
14:40 1018 30.06 847 25.01 27.3 81.2 17 0.3 32.5
14:45 1018 30.06 847 25.01 26.4 79.6 20 1.7 35.1
14:50 1018 30.06 847 25.01 26.4 79.4 17 -0.1 31.7
14:55 1018 30.06 847 25.01 26 78.8 17 -0.5 31.1
15:00 1018 30.06 847 25.01 25.7 78.2 17 -1.2 29.9
15:05 1018 30.06 847 25.01 25.3 77.5 19 0.3 32.5
15:10 1018 30.06 847 25.01 25.3 77.5 18 -0.2 31.6
15:15 1018 30.06 847 25.01 25.9 78.6 18 -0.3 31.5
15:20 1018 30.06 847 25.01 26 78.8 17 -0.5 31.1
15:25 1018 30.06 847 25.01 25.7 78.2 17 -0.7 30.8
15:30 1018 30.06 847 25.01 25.8 78.4 18 -0.4 31.3
15:35 1018 30.06 847 25.01 25.3 77.5 18 -0.2 31.6
15:40 1018 30.06 847 25.01 25.2 77.3 17 -1 30.3
15:45 1018 30.06 847 25.01 24.9 76.9 17 -1.6 29.2
15:50 1018 30.06 847 25.01 24.9 76.7 17 -1.6 29.2
15:55 1019 30.09 848 25.04 24.8 76.6 18 -0.7 30.7
16:00 1019 30.09 848 25.04 24.6 76.2 19 -0.4 31.2
16:05 1020 30.12 849 25.07 24.3 75.7 23 2.2 35.9
16:10 1019 30.09 848 25.04 23.8 74.8 26 3.4 38.1
16:15 1019 30.09 848 25.04 22.4 72.4 25 1.6 34.9
16:20 1019 30.09 848 25.04 22.2 72 25 1.6 35
16:25 1019 30.09 848 25.04 22.6 72.7 26 2.4 36.4
16:30 1019 30.09 848 25.04 22.8 73 24 1.5 34.7
16:35 1018 30.06 848 25.04 22.9 73.3 24 1.7 35.1
16:40 1018 30.06 847 25.01 23.5 74.3 23 1.3 34.3
16:45 1018 30.06 847 25.01 23.8 74.9 25 2.8 37
16:50 1018 30.06 847 25.01 24.2 75.5 24 2.6 36.6
16:55 1018 30.06 847 25.01 23.9 75 26 3.6 38.6
17:00 1018 30.06 847 25.01 23.3 73.9 28 3.7 38.7
17:05 1018 30.06 847 25.01 23 73.4 28 4 39.2
17:10 1018 30.06 847 25.01 23.1 73.5 29 4.1 39.4
17:15 1018 30.06 847 25.01 22.7 72.9 30 4.4 40
17:20 1018 30.06 847 25.01 22.8 73 29 3.9 39.1
17:25 1018 30.06 847 25.01 22.9 73.3 28 3.5 38.4
17:30 1018 30.06 847 25.01 22.9 73.2 27 3.1 37.6
17:35 1018 30.06 847 25.01 23 73.4 28 3.8 38.9
17:40 1018 30.06 847 25.01 23.3 74 28 4 39.2
17:45 1018 30.06 847 25.01 23.5 74.3 26 3.3 37.9
17:50 1018 30.06 847 25.01 23.4 74 27 3.8 38.8
17:55 1017 30.03 847 25.01 23.3 73.9 26 2.9 37.3
18:00 1017 30.03 847 25.01 23.3 74 27 3.7 38.6
18:05 1017 30.03 847 25.01 23.5 74.3 28 4 39.2
18:10 1017 30.03 847 25.01 23.5 74.4 29 4.6 40.3
18:15 1017 30.03 847 25.01 23.7 74.7 28 4.2 39.6
18:20 1017 30.03 847 25.01 23.6 74.5 29 4.9 40.8
18:25 1017 30.03 847 25.01 23.6 74.5 28 4.1 39.5
18:30 1017 30.03 847 25.01 23.4 74.2 29 4.8 40.6
18:35 1017 30.03 847 25.01 23.2 73.8 29 4.5 40.2
18:40 1017 30.03 847 25.01 23.2 73.8 29 4.4 40
18:45 1017 30.03 847 25.01 23.2 73.7 28 4.1 39.4
18:50 1017 30.03 847 25.01 23.2 73.7 29 4.4 39.8
18:55 1017 30.03 847 25.01 23.3 73.9 28 4.2 39.5
19:00 1017 30.03 847 25.01 23.3 73.9 29 4.4 39.9
19:05 1017 30.03 847 25.01 23.1 73.7 29 4.3 39.7
19:10 1017 30.03 847 25.01 23.2 73.7 29 4.4 39.9
19:15 1018 30.06 847 25.01 23.2 73.7 29 4.2 39.6
19:20 1018 30.06 847 25.01 23.1 73.5 30 4.8 40.7
19:25 1017 30.03 847 25.01 22.9 73.2 31 4.9 40.8
19:30 1018 30.06 847 25.01 22.7 72.9 31 5 41.1
19:35 1018 30.06 847 25.01 22.6 72.7 31 5.1 41.1
19:40 1018 30.06 847 25.01 22.5 72.5 32 5.2 41.4
19:45 1018 30.06 847 25.01 22.3 72.1 32 4.9 40.8
19:50 1018 30.06 847 25.01 22.2 71.9 32 4.9 40.9
19:55 1018 30.06 847 25.01 22.1 71.8 33 5.4 41.8
20:00 1018 30.06 847 25.01 21.8 71.3 34 5.3 41.6
20:05 1018 30.06 847 25.01 21.6 70.8 35 5.6 42
20:10 1018 30.06 847 25.01 21.3 70.4 37 6.2 43.1
20:15 1018 30.06 847 25.01 21.1 70 37 5.9 42.6
20:20 1018 30.06 847 25.01 20.9 69.7 39 6.5 43.7
20:25 1018 30.06 847 25.01 20.7 69.3 38 5.9 42.6
20:30 1018 30.06 847 25.01 20.6 69 40 6.5 43.7
20:35 1018 30.06 847 25.01 20.1 68.1 42 6.9 44.4
20:40 1019 30.09 848 25.04 19.9 67.9 40 6.1 43
20:45 1019 30.09 848 25.04 20 68 41 6.4 43.5
20:50 1019 30.09 848 25.04 19.8 67.6 42 6.5 43.7
20:55 1019 30.09 848 25.04 19.7 67.5 41 6.1 43
21:00 1019 30.09 848 25.04 19.6 67.2 42 6.5 43.7
21:05 1019 30.09 848 25.04 19.2 66.6 43 6.4 43.6
21:10 1019 30.09 848 25.04 19.2 66.6 43 6.4 43.6
21:15 1019 30.09 848 25.04 19.4 66.9 42 6.3 43.4
21:20 1019 30.09 848 25.04 19.3 66.8 43 6.5 43.8
21:25 1019 30.09 848 25.04 19 66.2 45 6.8 44.3
21:30 1019 30.09 848 25.04 18.5 65.3 48 7.5 45.5
21:35 1019 30.09 848 25.04 17.9 64.2 50 7.4 45.4
21:40 1019 30.09 848 25.04 17.7 63.9 50 7.3 45.1
21:45 1019 30.09 848 25.04 17.8 64.1 48 6.9 44.4
21:50 1019 30.09 848 25.04 18.2 64.7 47 6.7 44.1
21:55 1019 30.09 849 25.07 18.2 64.8 47 7 44.5
22:00 1019 30.09 849 25.07 18.1 64.6 47 6.8 44.3
22:05 1019 30.09 849 25.07 17.9 64.2 49 7.1 44.8
22:10 1019 30.09 849 25.07 17.6 63.8 49 7 44.6
22:15 1019 30.09 849 25.07 17.6 63.6 49 6.9 44.4
22:20 1020 30.12 849 25.07 17.6 63.7 49 6.8 44.3
22:25 1020 30.12 849 25.07 17.6 63.7 48 6.7 44.1
22:30 1020 30.12 849 25.07 17.6 63.6 49 6.9 44.4
22:35 1020 30.12 849 25.07 17.3 63.1 50 6.8 44.3
22:40 1020 30.12 849 25.07 17.1 62.8 50 6.6 43.9
22:45 1020 30.12 849 25.07 16.8 62.2 52 7 44.7
22:50 1019 30.09 849 25.07 16.5 61.7 50 6.2 43.2
22:55 1019 30.09 849 25.07 17 62.7 49 6.4 43.5
23:00 1020 30.12 849 25.07 16.9 62.4 51 6.9 44.4
23:05 1020 30.12 849 25.07 16.7 62 52 6.7 44.1
23:10 1020 30.12 849 25.07 16.7 62.1 51 6.7 44.1
23:15 1020 30.12 849 25.07 16.9 62.5 51 6.8 44.2
23:20 1020 30.12 849 25.07 16.9 62.4 50 6.7 44
23:25 1020 30.12 849 25.07 16.9 62.5 49 6.4 43.5
23:30 1020 30.12 849 25.07 17 62.6 50 6.5 43.7
23:35 1020 30.12 849 25.07 16.7 62.1 51 6.6 43.8
23:40 1020 30.12 849 25.07 16.4 61.6 52 6.7 44
23:45 1020 30.12 849 25.07 16.2 61.2 53 6.6 43.9
23:50 1020 30.12 849 25.07 16 60.8 52 6.2 43.2
23:55 1020 30.12 849 25.07 16.1 60.9 53 6.5 43.7
24:00 1020 30.12 850 25.1 15.9 60.6 53 6.4 43.6